Huvudsida
METAR-TAF:

METAR-TAF

Flygplatser :

Svalbards flygplats. Longyear

Longyearbyen, Norge

latitud: 78-15N, longitud: 015-28E, höjd: 2 m

Aktuellt väderrapport

Denna rapport gjordes för 18 minuter sedan, klockan 05:50 UTC
Vind 4 kt från ost
Temperatur -1°C
Fuktighet 64%
Tryck 1004 hPa
Sikt 10 km eller mer
Brutna moln på en höjd av 4000 ft

METAR: ENSB 220550Z 10004KT 9999 BKN040 M01/M07 Q1004 RMK WIND 1400FT 05008KT

Tid: 08:08 (06:08 UTC)

Väderprognos

Prognos gäller från 22 kl. 06 UTC till 23 kl. 06 UTC
Vind 12 kt från ost
Sikt 10 km eller mer
Få moln på en höjd av 2000 ft
Spridda moln på en höjd av 4000 ft
Temporärt
från 22 kl. 21 UTC till 23 kl. 06 UTC
Vind 22 kt från ost

TAF: ENSB 2206/2306 09012KT 9999 FEW020 SCT040 TEMPO 2221/2306 10022KT

Aktuella väderrapporter och prognoser från 4000 flygplatser (METAR- och TAF-rapporter).

De tillgängliga stationerna syns som gula och röda prickar på kartan.

För musen över prickarna för att se namnen på stationerna.

Klicka sedan för att få väderrapporter och prognoser.

För att ändra kartan: Klicka på de gröna knapparna med ett svart kors på för att zooma in; den gröna knappen med ett streck på för att zooma ut; eller på de gröna pilarna för angränsande kartor.


METAR-TAF: